createdAt,value
2023-05-04T00:02:03.344Z,1.83
2023-05-04T00:04:29.980Z,2.30
2023-05-04T00:06:56.611Z,2.20
2023-05-04T00:09:23.201Z,2.40
2023-05-04T00:11:49.850Z,2.17
2023-05-04T00:14:16.608Z,1.83
2023-05-04T00:16:43.979Z,2.00
2023-05-04T00:19:10.905Z,1.93
2023-05-04T00:21:37.650Z,1.97
2023-05-04T00:24:04.600Z,1.90
2023-05-04T00:26:31.226Z,2.50
2023-05-04T00:28:57.857Z,1.70
2023-05-04T00:31:24.525Z,1.40
2023-05-04T00:33:51.558Z,1.87
2023-05-04T00:36:18.268Z,2.70
2023-05-04T00:38:51.893Z,1.87
2023-05-04T00:41:20.111Z,2.00
2023-05-04T00:43:47.927Z,1.87
2023-05-04T00:46:14.973Z,1.67
2023-05-04T00:48:42.530Z,2.30
2023-05-04T00:51:11.912Z,2.20
2023-05-04T00:53:39.195Z,1.67
2023-05-04T00:56:07.466Z,2.00
2023-05-04T00:58:34.909Z,1.90
2023-05-04T01:01:02.271Z,1.90
2023-05-04T01:03:30.320Z,1.90
2023-05-04T01:06:06.086Z,1.83
2023-05-04T01:08:38.870Z,1.53
2023-05-04T01:11:11.496Z,1.60
2023-05-04T01:13:39.934Z,2.40
2023-05-04T01:16:06.805Z,2.03
2023-05-04T01:18:33.528Z,2.87
2023-05-04T01:21:01.407Z,2.30
2023-05-04T01:23:28.153Z,1.90
2023-05-04T01:26:18.714Z,1.90
2023-05-04T01:28:55.934Z,1.80
2023-05-04T01:31:24.634Z,2.10
2023-05-04T01:33:53.842Z,2.27
2023-05-04T01:36:22.049Z,1.90
2023-05-04T01:38:49.526Z,2.07
2023-05-04T01:41:16.184Z,2.43
2023-05-04T01:43:42.912Z,2.30
2023-05-04T01:46:09.618Z,2.33
2023-05-04T01:48:36.497Z,1.83
2023-05-04T01:51:03.276Z,1.97
2023-05-04T01:53:30.525Z,2.60
2023-05-04T01:55:57.241Z,1.73
2023-05-04T01:58:23.902Z,2.00
2023-05-04T02:00:50.673Z,2.07
2023-05-04T02:03:17.386Z,2.10
2023-05-04T02:05:44.103Z,2.03
2023-05-04T02:08:10.815Z,1.77
2023-05-04T02:10:37.433Z,1.93
2023-05-04T02:13:04.177Z,2.20
2023-05-04T02:15:30.919Z,2.17
2023-05-04T02:17:57.653Z,2.23
2023-05-04T02:20:24.309Z,2.20
2023-05-04T02:22:50.924Z,2.20
2023-05-04T02:25:18.551Z,2.13
2023-05-04T02:27:45.319Z,2.30
2023-05-04T02:30:12.789Z,2.00
2023-05-04T02:32:39.511Z,2.37
2023-05-04T02:35:06.598Z,2.30
2023-05-04T02:37:33.195Z,2.27
2023-05-04T02:39:59.806Z,2.43
2023-05-04T02:42:26.440Z,2.10
2023-05-04T02:44:53.085Z,2.10
2023-05-04T02:47:19.777Z,2.63
2023-05-04T02:49:46.561Z,1.93
2023-05-04T02:52:13.217Z,2.47
2023-05-04T02:54:39.862Z,2.40
2023-05-04T02:57:06.937Z,2.30
2023-05-04T02:59:33.603Z,2.23
2023-05-04T03:02:00.873Z,2.87
2023-05-04T03:04:27.668Z,2.60
2023-05-04T03:06:54.360Z,2.30
2023-05-04T03:09:21.003Z,2.77
2023-05-04T03:11:47.600Z,2.40
2023-05-04T03:14:14.452Z,2.57
2023-05-04T03:16:41.309Z,2.47
2023-05-04T03:19:08.272Z,2.40
2023-05-04T03:21:35.961Z,2.33
2023-05-04T03:24:02.661Z,2.33
2023-05-04T03:26:29.339Z,2.37
2023-05-04T03:28:56.109Z,3.00
2023-05-04T03:31:22.929Z,2.27
2023-05-04T03:33:52.020Z,2.40
2023-05-04T03:36:19.592Z,2.40
2023-05-04T03:38:46.640Z,2.40
2023-05-04T03:41:13.819Z,2.43
2023-05-04T03:43:40.474Z,2.50
2023-05-04T03:46:07.164Z,2.50
2023-05-04T03:48:33.917Z,2.90
2023-05-04T03:51:00.619Z,2.50
2023-05-04T03:53:27.353Z,2.23
2023-05-04T03:55:54.002Z,3.13
2023-05-04T03:58:21.837Z,3.00
2023-05-04T04:00:48.708Z,2.57
2023-05-04T04:03:15.701Z,3.00
2023-05-04T04:05:42.505Z,2.07
2023-05-04T04:08:09.368Z,2.50
2023-05-04T04:10:36.944Z,3.53
2023-05-04T04:13:03.733Z,2.73
2023-05-04T04:15:30.497Z,2.50
2023-05-04T04:17:57.132Z,2.40
2023-05-04T04:20:23.874Z,3.03
2023-05-04T04:22:50.541Z,3.10
2023-05-04T04:25:17.203Z,2.87
2023-05-04T04:27:43.803Z,2.87
2023-05-04T04:30:12.148Z,2.40
2023-05-04T04:32:38.840Z,3.00
2023-05-04T04:35:06.851Z,2.30
2023-05-04T04:37:33.492Z,2.90
2023-05-04T04:40:01.366Z,2.93
2023-05-04T04:42:28.061Z,3.50
2023-05-04T04:44:54.714Z,2.60
2023-05-04T04:47:21.385Z,3.23
2023-05-04T04:49:48.647Z,2.73
2023-05-04T04:52:15.737Z,3.20
2023-05-04T04:54:42.465Z,2.67
2023-05-04T04:57:09.733Z,3.10
2023-05-04T04:59:37.947Z,2.40
2023-05-04T05:02:04.713Z,3.60
2023-05-04T05:04:31.378Z,2.87
2023-05-04T05:06:58.749Z,2.53
2023-05-04T05:09:25.418Z,2.60
2023-05-04T05:11:52.036Z,3.00
2023-05-04T05:14:18.665Z,3.10
2023-05-04T05:16:45.397Z,2.50
2023-05-04T05:19:12.059Z,2.90
2023-05-04T05:21:38.729Z,2.67
2023-05-04T05:24:06.234Z,2.77
2023-05-04T05:26:33.280Z,2.67
2023-05-04T05:28:59.946Z,2.77
2023-05-04T05:31:27.586Z,2.97
2023-05-04T05:33:54.336Z,2.90
2023-05-04T05:36:21.328Z,3.50
2023-05-04T05:38:49.735Z,2.90
2023-05-04T05:41:16.978Z,2.77
2023-05-04T05:43:43.589Z,3.20
2023-05-04T05:46:11.857Z,3.20
2023-05-04T05:48:38.551Z,3.20
2023-05-04T05:51:05.424Z,3.10
2023-05-04T05:53:32.086Z,2.93
2023-05-04T05:55:59.099Z,2.97
2023-05-04T05:58:25.732Z,3.50
2023-05-04T06:00:52.342Z,3.23
2023-05-04T06:03:19.299Z,3.17
2023-05-04T06:05:46.110Z,3.47
2023-05-04T06:08:12.711Z,3.50
2023-05-04T06:10:39.548Z,3.37
2023-05-04T06:13:06.331Z,2.83
2023-05-04T06:15:32.982Z,3.93
2023-05-04T06:17:59.735Z,3.47
2023-05-04T06:20:26.634Z,3.20
2023-05-04T06:22:53.264Z,3.57
2023-05-04T06:25:19.961Z,3.07
2023-05-04T06:27:47.259Z,3.10
2023-05-04T06:30:14.941Z,3.47
2023-05-04T06:32:41.694Z,3.27
2023-05-04T06:35:09.026Z,3.10
2023-05-04T06:37:35.830Z,3.50
2023-05-04T06:40:03.893Z,3.00
2023-05-04T06:42:31.567Z,3.00
2023-05-04T06:44:58.481Z,3.17
2023-05-04T06:47:25.364Z,2.90
2023-05-04T06:49:52.055Z,3.03
2023-05-04T06:52:18.673Z,3.13
2023-05-04T06:54:46.134Z,2.77
2023-05-04T06:57:12.779Z,3.53
2023-05-04T06:59:39.397Z,3.37
2023-05-04T07:02:06.361Z,3.30
2023-05-04T07:04:33.000Z,3.43
2023-05-04T07:06:59.597Z,3.57
2023-05-04T07:09:26.727Z,3.00
2023-05-04T07:11:53.333Z,3.37
2023-05-04T07:14:19.984Z,3.13
2023-05-04T07:16:46.658Z,2.90
2023-05-04T07:19:13.982Z,3.07
2023-05-04T07:21:41.382Z,2.90
2023-05-04T07:24:08.145Z,3.33
2023-05-04T07:26:34.829Z,3.43
2023-05-04T07:29:01.469Z,4.20
2023-05-04T07:31:30.287Z,3.30
2023-05-04T07:33:57.435Z,3.20
2023-05-04T07:36:26.411Z,3.57
2023-05-04T07:38:53.471Z,3.10
2023-05-04T07:41:20.228Z,3.83
2023-05-04T07:43:47.039Z,3.70
2023-05-04T07:46:13.798Z,3.70
2023-05-04T07:48:40.426Z,3.73
2023-05-04T07:51:12.733Z,3.83
2023-05-04T07:53:39.373Z,3.43
2023-05-04T07:56:13.096Z,3.53
2023-05-04T07:58:39.933Z,3.70
2023-05-04T08:01:06.641Z,4.17
2023-05-04T08:03:33.288Z,3.57
2023-05-04T08:05:59.903Z,4.17
2023-05-04T08:08:26.979Z,3.80
2023-05-04T08:10:54.984Z,3.70
2023-05-04T08:13:22.873Z,4.70
2023-05-04T08:15:49.673Z,5.00
2023-05-04T08:18:16.432Z,4.77
2023-05-04T08:20:43.124Z,5.07
2023-05-04T08:23:10.121Z,4.50
2023-05-04T08:25:36.809Z,4.33
2023-05-04T08:28:03.720Z,4.13
2023-05-04T08:30:31.315Z,5.10
2023-05-04T08:32:59.118Z,5.97
2023-05-04T08:35:27.743Z,7.07
2023-05-04T08:37:54.524Z,6.07
2023-05-04T08:40:23.936Z,6.63
2023-05-04T08:42:51.203Z,6.30
2023-05-04T08:45:18.013Z,5.90
2023-05-04T08:47:44.977Z,6.40
2023-05-04T08:50:12.220Z,6.50
2023-05-04T08:52:47.216Z,6.70
2023-05-04T08:55:16.943Z,6.93
2023-05-04T08:57:44.083Z,6.63
2023-05-04T09:00:16.370Z,6.70
2023-05-04T09:02:44.128Z,6.60
2023-05-04T09:05:11.936Z,6.13
2023-05-04T09:07:38.560Z,6.80
2023-05-04T09:10:06.346Z,6.27
2023-05-04T09:12:33.383Z,6.10
2023-05-04T09:15:02.121Z,5.73
2023-05-04T09:17:29.463Z,6.00
2023-05-04T09:20:03.457Z,6.17
2023-05-04T09:22:30.629Z,5.67
2023-05-04T09:25:11.578Z,5.43
2023-05-04T09:27:41.277Z,5.87
2023-05-04T09:30:09.020Z,5.97
2023-05-04T09:32:48.630Z,5.70
2023-05-04T09:35:29.181Z,4.83
2023-05-04T09:37:57.809Z,5.93
2023-05-04T09:40:32.509Z,5.40
2023-05-04T09:43:00.894Z,5.00
2023-05-04T09:45:38.206Z,4.80
2023-05-04T09:48:19.031Z,4.40
2023-05-04T09:50:56.411Z,4.10
2023-05-04T09:53:27.343Z,4.73
2023-05-04T09:56:33.707Z,5.13
2023-05-04T09:59:00.346Z,5.33
2023-05-04T10:01:30.239Z,4.87
2023-05-04T10:03:57.186Z,4.73
2023-05-04T10:06:24.523Z,4.10
2023-05-04T10:08:51.767Z,4.50
2023-05-04T10:11:20.090Z,3.87
2023-05-04T10:13:48.568Z,4.27
2023-05-04T10:16:36.260Z,4.80
2023-05-04T10:19:32.266Z,4.43
2023-05-04T10:22:43.610Z,4.07
2023-05-04T10:25:35.015Z,4.17
2023-05-04T10:28:44.275Z,4.63
2023-05-04T10:31:11.341Z,3.70
2023-05-04T10:33:42.491Z,2.90
2023-05-04T10:36:10.630Z,3.03
2023-05-04T10:38:38.889Z,2.90
2023-05-04T10:41:16.137Z,4.17
2023-05-04T10:43:43.465Z,2.77
2023-05-04T10:46:22.203Z,3.23
2023-05-04T10:48:49.979Z,3.17
2023-05-04T10:51:26.511Z,3.17
2023-05-04T10:53:57.276Z,3.03
2023-05-04T10:56:28.107Z,4.00
2023-05-04T10:58:55.284Z,3.70
2023-05-04T11:01:22.293Z,3.40
2023-05-04T11:03:49.606Z,2.80
2023-05-04T11:06:23.355Z,3.90
2023-05-04T11:09:01.718Z,3.57
2023-05-04T11:11:28.624Z,3.00
2023-05-04T11:13:56.417Z,3.60
2023-05-04T11:16:24.787Z,2.90
2023-05-04T11:18:51.481Z,3.70
2023-05-04T11:21:25.637Z,2.93
2023-05-04T11:23:56.869Z,3.17
2023-05-04T11:26:24.295Z,3.20
2023-05-04T11:28:51.381Z,2.63
2023-05-04T11:31:20.010Z,3.17
2023-05-04T11:33:47.972Z,3.17
2023-05-04T11:36:14.873Z,2.73
2023-05-04T11:38:41.754Z,2.50
2023-05-04T11:41:09.109Z,3.07
2023-05-04T11:43:37.805Z,2.50
2023-05-04T11:46:06.013Z,2.90
2023-05-04T11:48:34.571Z,3.00
2023-05-04T11:51:02.663Z,2.90
2023-05-04T11:53:40.618Z,3.40
2023-05-04T11:56:11.064Z,3.10
2023-05-04T11:58:38.026Z,2.40
2023-05-04T12:01:05.124Z,2.80
2023-05-04T12:03:48.514Z,2.30
2023-05-04T12:06:30.701Z,3.10
2023-05-04T12:09:03.361Z,3.00
2023-05-04T12:11:30.181Z,2.67
2023-05-04T12:14:04.151Z,2.70
2023-05-04T12:16:31.147Z,2.53
2023-05-04T12:19:12.427Z,2.33
2023-05-04T12:21:49.432Z,2.40
2023-05-04T12:24:16.288Z,2.57
2023-05-04T12:26:43.234Z,2.83
2023-05-04T12:29:09.861Z,2.47
2023-05-04T12:31:36.491Z,2.40
2023-05-04T12:34:03.128Z,2.47
2023-05-04T12:36:29.760Z,2.50
2023-05-04T12:38:56.665Z,2.20
2023-05-04T12:41:23.380Z,2.90
2023-05-04T12:43:50.074Z,2.40
2023-05-04T12:46:21.138Z,2.33
2023-05-04T12:48:47.845Z,3.00
2023-05-04T12:51:14.486Z,2.40
2023-05-04T12:53:41.727Z,2.30
2023-05-04T12:56:08.372Z,2.40
2023-05-04T12:58:35.120Z,2.90
2023-05-04T13:01:02.252Z,2.77
2023-05-04T13:03:29.076Z,3.10
2023-05-04T13:05:57.465Z,2.47
2023-05-04T13:08:24.157Z,2.60
2023-05-04T13:10:52.010Z,2.60
2023-05-04T13:13:18.884Z,2.47
2023-05-04T13:15:49.315Z,2.50
2023-05-04T13:18:16.188Z,2.77
2023-05-04T13:20:42.822Z,2.30
2023-05-04T13:23:09.547Z,2.60
2023-05-04T13:25:36.279Z,2.60
2023-05-04T13:28:03.317Z,3.00
2023-05-04T13:30:30.175Z,2.70
2023-05-04T13:32:56.928Z,2.80
2023-05-04T13:35:23.821Z,2.33
2023-05-04T13:37:50.944Z,2.67
2023-05-04T13:40:17.803Z,3.20
2023-05-04T13:42:44.568Z,10.20
2023-05-04T13:45:11.635Z,2.47
2023-05-04T13:47:39.896Z,2.63
2023-05-04T13:50:07.441Z,2.57
2023-05-04T13:52:34.065Z,2.60
2023-05-04T13:55:00.854Z,2.97
2023-05-04T13:57:27.862Z,2.93
2023-05-04T14:00:06.390Z,3.20
2023-05-04T14:02:40.555Z,3.17
2023-05-04T14:05:07.887Z,2.97
2023-05-04T14:07:35.292Z,2.57
2023-05-04T14:10:02.330Z,2.60
2023-05-04T14:12:29.119Z,2.77
2023-05-04T14:14:57.104Z,2.57
2023-05-04T14:17:23.715Z,2.87
2023-05-04T14:19:50.323Z,3.00
2023-05-04T14:22:16.960Z,2.20
2023-05-04T14:24:43.576Z,1.97
2023-05-04T14:27:10.214Z,1.90
2023-05-04T14:29:36.836Z,1.90
2023-05-04T14:32:03.628Z,2.40
2023-05-04T14:34:30.354Z,2.20
2023-05-04T14:36:57.498Z,2.10
2023-05-04T14:39:24.714Z,1.80
2023-05-04T14:41:52.622Z,2.33
2023-05-04T14:44:20.493Z,2.47
2023-05-04T14:46:47.376Z,2.10
2023-05-04T14:49:18.673Z,2.20
2023-05-04T14:51:55.267Z,1.90
2023-05-04T14:54:21.901Z,2.20
2023-05-04T14:56:50.690Z,2.27
2023-05-04T14:59:19.105Z,2.50
2023-05-04T15:01:46.832Z,2.20
2023-05-04T15:04:13.568Z,2.00
2023-05-04T15:06:40.198Z,2.20
2023-05-04T15:09:06.877Z,2.10
2023-05-04T15:11:33.516Z,2.10
2023-05-04T15:14:00.305Z,2.87
2023-05-04T15:16:32.012Z,3.13
2023-05-04T15:18:59.397Z,2.50
2023-05-04T15:21:26.240Z,2.27
2023-05-04T15:23:52.932Z,2.43
2023-05-04T15:26:19.561Z,2.73
2023-05-04T15:28:46.161Z,3.03
2023-05-04T15:31:13.759Z,3.10
2023-05-04T15:33:40.533Z,2.87
2023-05-04T15:36:10.441Z,2.63
2023-05-04T15:38:37.271Z,2.67
2023-05-04T15:41:05.672Z,2.90
2023-05-04T15:43:35.467Z,2.83
2023-05-04T15:46:02.142Z,2.80
2023-05-04T15:48:28.836Z,3.47
2023-05-04T15:50:55.607Z,3.60
2023-05-04T15:53:22.360Z,3.10
2023-05-04T15:55:50.118Z,2.97
2023-05-04T15:58:16.751Z,3.20
2023-05-04T16:00:43.355Z,3.20
2023-05-04T16:03:10.110Z,3.17
2023-05-04T16:05:37.087Z,3.57
2023-05-04T16:08:03.947Z,2.80
2023-05-04T16:10:30.721Z,3.27
2023-05-04T16:13:00.177Z,3.23
2023-05-04T16:15:26.902Z,2.70
2023-05-04T16:17:53.592Z,3.00
2023-05-04T16:20:20.539Z,3.40
2023-05-04T16:22:47.317Z,3.03
2023-05-04T16:25:13.982Z,3.13
2023-05-04T16:27:40.776Z,3.30
2023-05-04T16:30:08.301Z,4.10
2023-05-04T16:32:35.187Z,2.70
2023-05-04T16:35:01.925Z,3.00
2023-05-04T16:37:28.678Z,3.80
2023-05-04T16:39:55.381Z,3.10
2023-05-04T16:42:22.195Z,3.03
2023-05-04T16:44:48.917Z,3.00
2023-05-04T16:47:16.144Z,3.10
2023-05-04T16:49:42.870Z,3.33
2023-05-04T16:52:09.644Z,2.93
2023-05-04T16:54:36.299Z,3.40
2023-05-04T16:57:03.014Z,3.10
2023-05-04T16:59:29.676Z,2.77
2023-05-04T17:01:58.501Z,3.17
2023-05-04T17:04:27.329Z,3.00
2023-05-04T17:06:54.141Z,3.20
2023-05-04T17:09:20.795Z,3.47
2023-05-04T17:11:47.533Z,2.90
2023-05-04T17:14:14.142Z,3.23
2023-05-04T17:16:41.904Z,3.23
2023-05-04T17:19:10.906Z,3.20
2023-05-04T17:21:37.899Z,3.27
2023-05-04T17:24:04.661Z,3.40
2023-05-04T17:26:31.573Z,3.13
2023-05-04T17:28:58.208Z,2.83
2023-05-04T17:31:24.980Z,3.10
2023-05-04T17:33:51.606Z,3.20
2023-05-04T17:36:18.274Z,3.40
2023-05-04T17:38:44.954Z,3.03
2023-05-04T17:41:11.649Z,3.30
2023-05-04T17:43:38.885Z,3.20
2023-05-04T17:46:05.608Z,2.93
2023-05-04T17:48:32.399Z,3.83
2023-05-04T17:50:59.203Z,3.30
2023-05-04T17:53:29.450Z,3.33
2023-05-04T17:55:56.215Z,3.80
2023-05-04T17:58:23.020Z,3.60
2023-05-04T18:00:52.124Z,3.43
2023-05-04T18:03:20.099Z,3.30
2023-05-04T18:05:47.001Z,3.30
2023-05-04T18:08:14.372Z,2.90
2023-05-04T18:10:41.100Z,3.20
2023-05-04T18:13:07.860Z,3.73
2023-05-04T18:15:34.546Z,3.83
2023-05-04T18:18:01.278Z,3.23
2023-05-04T18:20:28.039Z,3.63
2023-05-04T18:22:54.648Z,3.50
2023-05-04T18:25:21.385Z,3.30
2023-05-04T18:27:48.039Z,3.20
2023-05-04T18:30:14.829Z,3.77
2023-05-04T18:32:41.551Z,3.97
2023-05-04T18:35:08.385Z,3.17
2023-05-04T18:37:35.066Z,3.37
2023-05-04T18:40:01.786Z,3.53
2023-05-04T18:42:28.577Z,3.80
2023-05-04T18:44:56.042Z,3.70
2023-05-04T18:47:22.754Z,3.57
2023-05-04T18:49:50.941Z,3.80
2023-05-04T18:52:17.918Z,3.10
2023-05-04T18:54:44.562Z,3.57
2023-05-04T18:57:11.706Z,3.70
2023-05-04T18:59:38.445Z,3.20
2023-05-04T19:02:05.160Z,3.30
2023-05-04T19:04:31.765Z,3.97
2023-05-04T19:06:58.609Z,3.93
2023-05-04T19:09:25.612Z,3.37
2023-05-04T19:11:52.259Z,4.00
2023-05-04T19:14:19.235Z,4.03
2023-05-04T19:16:45.947Z,3.80
2023-05-04T19:19:12.604Z,3.93
2023-05-04T19:21:39.216Z,3.90
2023-05-04T19:24:07.025Z,3.60
2023-05-04T19:26:33.705Z,3.50
2023-05-04T19:29:00.422Z,3.60
2023-05-04T19:31:27.172Z,3.30
2023-05-04T19:33:53.916Z,3.90
2023-05-04T19:36:20.601Z,4.20
2023-05-04T19:38:47.254Z,4.00
2023-05-04T19:41:14.244Z,3.40
2023-05-04T19:43:41.049Z,4.40
2023-05-04T19:46:07.944Z,3.73
2023-05-04T19:48:34.611Z,4.00
2023-05-04T19:51:01.345Z,4.13
2023-05-04T19:53:28.031Z,4.00
2023-05-04T19:55:54.726Z,4.00
2023-05-04T19:58:25.735Z,4.60
2023-05-04T20:00:52.928Z,4.07
2023-05-04T20:03:19.891Z,3.90
2023-05-04T20:05:46.507Z,4.00
2023-05-04T20:08:13.894Z,4.50
2023-05-04T20:10:40.914Z,3.90
2023-05-04T20:13:07.577Z,4.43
2023-05-04T20:15:34.220Z,4.23
2023-05-04T20:18:00.923Z,4.00
2023-05-04T20:20:27.542Z,4.27
2023-05-04T20:22:55.859Z,4.03
2023-05-04T20:25:22.782Z,3.50
2023-05-04T20:27:52.000Z,4.70
2023-05-04T20:30:18.791Z,4.50
2023-05-04T20:32:47.249Z,4.43
2023-05-04T20:35:13.980Z,4.50
2023-05-04T20:37:40.645Z,4.80
2023-05-04T20:40:08.420Z,4.30
2023-05-04T20:42:35.606Z,4.80
2023-05-04T20:45:02.328Z,3.97
2023-05-04T20:47:28.994Z,4.27
2023-05-04T20:49:56.517Z,4.90
2023-05-04T20:52:23.366Z,4.00
2023-05-04T20:54:50.078Z,4.50
2023-05-04T20:57:16.702Z,4.80
2023-05-04T20:59:43.322Z,4.53
2023-05-04T21:02:09.942Z,4.30
2023-05-04T21:04:36.596Z,4.47
2023-05-04T21:07:03.208Z,4.47
2023-05-04T21:09:29.994Z,4.60
2023-05-04T21:11:56.609Z,4.60
2023-05-04T21:14:23.283Z,4.63
2023-05-04T21:16:49.935Z,4.20
2023-05-04T21:19:16.551Z,4.47
2023-05-04T21:21:43.256Z,4.90
2023-05-04T21:24:13.656Z,4.30
2023-05-04T21:26:41.165Z,4.40
2023-05-04T21:29:14.462Z,4.70
2023-05-04T21:31:41.743Z,4.40
2023-05-04T21:34:08.721Z,4.23
2023-05-04T21:36:35.811Z,4.27
2023-05-04T21:39:02.429Z,4.13
2023-05-04T21:41:29.838Z,3.93
2023-05-04T21:43:56.627Z,3.93
2023-05-04T21:46:23.386Z,3.93
2023-05-04T21:48:51.637Z,4.33
2023-05-04T21:51:20.626Z,4.33
2023-05-04T21:53:47.704Z,3.93
2023-05-04T21:56:14.523Z,4.30
2023-05-04T21:58:41.876Z,4.20
2023-05-04T22:01:09.652Z,4.57
2023-05-04T22:03:36.943Z,4.23
2023-05-04T22:06:03.967Z,4.50
2023-05-04T22:08:30.638Z,3.70
2023-05-04T22:10:58.502Z,5.20
2023-05-04T22:13:25.897Z,4.30
2023-05-04T22:15:53.425Z,4.17
2023-05-04T22:18:20.786Z,4.27
2023-05-04T22:20:47.800Z,4.43
2023-05-04T22:23:14.543Z,4.40
2023-05-04T22:25:41.167Z,4.50
2023-05-04T22:28:07.887Z,4.50
2023-05-04T22:30:34.611Z,4.20
2023-05-04T22:33:01.380Z,4.20
2023-05-04T22:35:28.189Z,4.07
2023-05-04T22:37:54.813Z,4.47
2023-05-04T22:40:21.485Z,4.20
2023-05-04T22:42:49.135Z,4.60
2023-05-04T22:45:17.433Z,4.07
2023-05-04T22:47:45.432Z,4.97
2023-05-04T22:50:13.361Z,3.93
2023-05-04T22:52:40.354Z,4.10
2023-05-04T22:55:07.993Z,4.30
2023-05-04T22:57:34.753Z,5.00
2023-05-04T23:00:01.532Z,3.93
2023-05-04T23:02:28.375Z,4.70
2023-05-04T23:04:55.147Z,4.80
2023-05-04T23:07:21.819Z,4.80
2023-05-04T23:09:48.451Z,4.60
2023-05-04T23:12:15.585Z,4.57
2023-05-04T23:14:42.261Z,4.20
2023-05-04T23:17:10.320Z,4.37
2023-05-04T23:19:36.936Z,3.40
2023-05-04T23:22:03.728Z,4.40
2023-05-04T23:24:30.428Z,4.60
2023-05-04T23:26:58.587Z,4.37
2023-05-04T23:29:25.391Z,4.50
2023-05-04T23:31:53.103Z,4.53
2023-05-04T23:34:19.919Z,3.70
2023-05-04T23:36:46.549Z,3.90
2023-05-04T23:39:13.140Z,3.60
2023-05-04T23:41:39.982Z,4.67
2023-05-04T23:44:06.694Z,4.87
2023-05-04T23:46:33.320Z,3.70
2023-05-04T23:49:00.035Z,3.60
2023-05-04T23:51:28.506Z,3.80
2023-05-04T23:53:55.668Z,3.60
2023-05-04T23:56:22.358Z,3.77
2023-05-04T23:58:48.996Z,4.10
